createdAt,value
2018-01-22T00:01:49.496Z,48.95
2018-01-22T00:04:19.948Z,48.70
2018-01-22T00:06:50.506Z,48.37
2018-01-22T00:09:21.654Z,50.83
2018-01-22T00:11:53.045Z,51.80
2018-01-22T00:14:23.315Z,52.25
2018-01-22T00:16:54.485Z,54.60
2018-01-22T00:19:25.682Z,51.85
2018-01-22T00:21:56.144Z,54.47
2018-01-22T00:24:27.685Z,52.47
2018-01-22T00:26:58.641Z,52.03
2018-01-22T00:29:29.928Z,57.90
2018-01-22T00:32:00.122Z,59.10
2018-01-22T00:34:30.307Z,54.92
2018-01-22T00:37:00.701Z,61.40
2018-01-22T00:39:31.326Z,57.80
2018-01-22T00:42:01.552Z,49.70
2018-01-22T00:44:32.168Z,56.27
2018-01-22T00:47:03.166Z,54.77
2018-01-22T00:49:33.620Z,50.72
2018-01-22T00:52:03.956Z,59.08
2018-01-22T00:54:35.981Z,56.22
2018-01-22T00:57:06.584Z,56.33
2018-01-22T00:59:36.988Z,57.53
2018-01-22T01:02:07.269Z,54.17
2018-01-22T01:04:37.900Z,61.33
2018-01-22T01:07:08.205Z,57.58
2018-01-22T01:09:39.287Z,58.00
2018-01-22T01:12:09.809Z,62.97
2018-01-22T01:14:40.202Z,55.97
2018-01-22T01:17:11.211Z,57.65
2018-01-22T01:19:43.038Z,54.53
2018-01-22T01:22:13.539Z,56.95
2018-01-22T01:24:44.057Z,55.67
2018-01-22T01:27:15.265Z,56.37
2018-01-22T01:29:45.866Z,60.07
2018-01-22T01:32:16.832Z,57.70
2018-01-22T01:34:47.067Z,60.30
2018-01-22T01:37:18.755Z,61.07
2018-01-22T01:39:49.736Z,55.00
2018-01-22T01:43:23.397Z,57.90
2018-01-22T01:45:53.888Z,59.15
2018-01-22T01:48:25.072Z,62.42
2018-01-22T01:50:57.339Z,61.92
2018-01-22T01:53:29.042Z,63.40
2018-01-22T01:55:59.224Z,64.37
2018-01-22T01:58:30.133Z,62.38
2018-01-22T02:01:01.433Z,59.63
2018-01-22T02:03:31.730Z,72.90
2018-01-22T02:06:01.916Z,69.33
2018-01-22T02:08:33.157Z,72.18
2018-01-22T02:11:03.620Z,66.28
2018-01-22T02:13:34.776Z,66.82
2018-01-22T02:16:06.337Z,72.40
2018-01-22T02:18:36.590Z,72.90
2018-01-22T02:21:07.019Z,73.82
2018-01-22T02:23:38.152Z,65.97
2018-01-22T02:26:08.285Z,65.47
2018-01-22T02:28:39.454Z,69.00
2018-01-22T02:31:09.778Z,73.07
2018-01-22T02:33:40.289Z,69.87
2018-01-22T02:36:11.397Z,67.47
2018-01-22T02:38:41.877Z,66.47
2018-01-22T02:41:12.353Z,68.60
2018-01-22T02:43:45.313Z,62.70
2018-01-22T02:46:17.265Z,61.10
2018-01-22T02:48:47.508Z,61.67
2018-01-22T02:51:18.087Z,62.47
2018-01-22T02:53:48.252Z,62.13
2018-01-22T02:56:18.459Z,58.42
2018-01-22T02:58:48.924Z,64.35
2018-01-22T03:01:19.844Z,59.15
2018-01-22T03:03:50.054Z,61.50
2018-01-22T03:06:21.751Z,57.28
2018-01-22T03:08:52.383Z,62.47
2018-01-22T03:11:23.510Z,69.40
2018-01-22T03:13:54.097Z,64.07
2018-01-22T03:16:24.353Z,57.00
2018-01-22T03:18:54.668Z,59.43
2018-01-22T03:21:25.203Z,73.37
2018-01-22T03:23:55.663Z,65.75
2018-01-22T03:26:26.118Z,66.40
2018-01-22T03:28:56.586Z,74.23
2018-01-22T03:31:27.206Z,70.90
2018-01-22T03:33:57.714Z,67.87
2018-01-22T03:36:28.095Z,67.27
2018-01-22T03:38:59.436Z,70.07
2018-01-22T03:41:30.682Z,68.07
2018-01-22T03:44:01.169Z,67.47
2018-01-22T03:46:31.735Z,66.70
2018-01-22T03:49:02.193Z,63.72
2018-01-22T03:51:32.622Z,61.35
2018-01-22T03:54:03.085Z,63.00
2018-01-22T03:56:35.499Z,58.80
2018-01-22T03:59:06.725Z,61.63
2018-01-22T04:01:37.688Z,57.70
2018-01-22T04:04:08.158Z,61.03
2018-01-22T04:06:41.884Z,62.70
2018-01-22T04:09:13.028Z,64.53
2018-01-22T04:11:43.646Z,54.77
2018-01-22T04:14:14.226Z,60.63
2018-01-22T04:16:44.702Z,64.77
2018-01-22T04:19:15.236Z,62.20
2018-01-22T04:21:45.883Z,59.53
2018-01-22T04:24:17.563Z,58.70
2018-01-22T04:26:47.929Z,60.70
2018-01-22T04:29:18.336Z,56.20
2018-01-22T04:31:48.824Z,63.35
2018-01-22T04:34:19.337Z,58.75
2018-01-22T04:36:50.277Z,64.33
2018-01-22T04:39:20.671Z,60.30
2018-01-22T04:41:51.025Z,61.65
2018-01-22T04:44:21.928Z,62.45
2018-01-22T04:46:55.655Z,63.33
2018-01-22T04:49:26.400Z,61.80
2018-01-22T04:51:56.951Z,62.13
2018-01-22T04:54:27.380Z,60.17
2018-01-22T04:57:00.170Z,66.37
2018-01-22T04:59:31.462Z,67.25
2018-01-22T05:02:02.424Z,64.97
2018-01-22T05:04:34.281Z,63.03
2018-01-22T05:07:08.940Z,56.67
2018-01-22T05:09:39.557Z,59.73
2018-01-22T05:12:10.261Z,69.82
2018-01-22T05:14:41.495Z,63.07
2018-01-22T05:17:14.406Z,65.60
2018-01-22T05:19:45.500Z,65.25
2018-01-22T05:22:16.853Z,63.20
2018-01-22T05:24:46.968Z,61.83
2018-01-22T05:27:17.302Z,68.87
2018-01-22T05:29:47.689Z,70.97
2018-01-22T05:32:24.390Z,67.90
2018-01-22T05:35:01.473Z,70.77
2018-01-22T05:37:31.960Z,65.40
2018-01-22T05:40:02.348Z,70.93
2018-01-22T05:42:33.524Z,71.68
2018-01-22T05:45:05.261Z,72.00
2018-01-22T05:47:36.576Z,63.87
2018-01-22T05:50:08.661Z,71.55
2018-01-22T05:52:40.485Z,69.60
2018-01-22T05:55:10.732Z,69.10
2018-01-22T05:57:43.000Z,74.97
2018-01-22T06:00:13.899Z,74.20
2018-01-22T06:02:44.614Z,71.87
2018-01-22T06:05:15.035Z,77.62
2018-01-22T06:07:45.625Z,72.05
2018-01-22T06:10:17.311Z,98.63
2018-01-22T06:12:49.805Z,82.40
2018-01-22T06:15:20.316Z,81.40
2018-01-22T06:17:51.532Z,88.73
2018-01-22T06:20:22.604Z,92.17
2018-01-22T06:22:52.893Z,89.27
2018-01-22T06:25:23.905Z,97.93
2018-01-22T06:27:54.447Z,100.10
2018-01-22T06:30:28.055Z,98.20
2018-01-22T06:32:59.249Z,94.95
2018-01-22T06:35:30.561Z,91.60
2018-01-22T06:38:00.761Z,93.37
2018-01-22T06:40:31.751Z,89.68
2018-01-22T06:43:02.254Z,97.00
2018-01-22T06:45:32.728Z,90.63
2018-01-22T06:48:06.508Z,93.25
2018-01-22T06:50:36.781Z,93.70
2018-01-22T06:53:08.441Z,80.87
2018-01-22T06:55:39.804Z,88.27
2018-01-22T06:58:10.116Z,85.30
2018-01-22T07:00:43.169Z,91.28
2018-01-22T07:03:15.359Z,94.93
2018-01-22T07:05:46.040Z,86.60
2018-01-22T07:08:31.064Z,93.70
2018-01-22T07:11:02.144Z,88.25
2018-01-22T07:13:32.341Z,90.35
2018-01-22T07:16:02.841Z,98.60
2018-01-22T07:18:34.142Z,88.22
2018-01-22T07:21:05.335Z,87.57
2018-01-22T07:23:36.598Z,95.43
2018-01-22T07:26:07.009Z,91.65
2018-01-22T07:28:40.292Z,91.72
2018-01-22T07:31:12.249Z,83.90
2018-01-22T07:33:43.375Z,89.33
2018-01-22T07:36:14.060Z,82.63
2018-01-22T07:38:47.105Z,85.40
2018-01-22T07:41:17.845Z,79.67
2018-01-22T07:43:48.215Z,83.23
2018-01-22T07:46:19.067Z,82.50
2018-01-22T07:48:54.267Z,84.27
2018-01-22T07:51:31.272Z,80.73
2018-01-22T07:54:02.690Z,75.95
2018-01-22T07:56:33.274Z,73.60
2018-01-22T07:59:03.785Z,81.77
2018-01-22T08:01:34.209Z,75.20
2018-01-22T08:04:04.618Z,75.63
2018-01-22T08:06:35.297Z,84.03
2018-01-22T08:09:05.744Z,80.87
2018-01-22T08:11:36.701Z,83.73
2018-01-22T08:14:07.419Z,77.45
2018-01-22T08:16:37.706Z,81.57
2018-01-22T08:19:08.486Z,72.90
2018-01-22T08:21:40.436Z,76.22
2018-01-22T08:24:11.408Z,73.37
2018-01-22T08:26:43.444Z,81.22
2018-01-22T08:29:15.917Z,83.10
2018-01-22T08:31:47.326Z,75.80
2018-01-22T08:34:17.465Z,75.93
2018-01-22T08:36:48.746Z,71.53
2018-01-22T08:39:18.936Z,74.75
2018-01-22T08:41:50.229Z,72.20
2018-01-22T08:44:20.345Z,80.40
2018-01-22T08:46:50.739Z,78.12
2018-01-22T08:49:21.365Z,70.53
2018-01-22T08:56:22.982Z,79.83
2018-01-22T08:58:53.212Z,77.40
2018-01-22T09:01:23.759Z,72.50
2018-01-22T09:03:54.239Z,71.37
2018-01-22T09:06:24.458Z,76.07
2018-01-22T09:09:05.737Z,71.10
2018-01-22T09:11:47.022Z,67.63
2018-01-22T09:14:17.195Z,65.40
2018-01-22T09:16:48.752Z,67.53
2018-01-22T09:19:19.640Z,61.93
2018-01-22T09:26:20.903Z,62.80
2018-01-22T09:28:51.443Z,60.77
2018-01-22T09:36:04.349Z,63.40
2018-01-22T09:38:35.700Z,63.17
2018-01-22T09:41:05.956Z,59.00
2018-01-22T09:43:36.114Z,62.03
2018-01-22T09:46:17.005Z,61.17
2018-01-22T09:48:57.744Z,61.00
2018-01-22T09:51:27.928Z,62.77
2018-01-22T09:58:28.837Z,61.43
2018-01-22T10:00:59.001Z,61.57
2018-01-22T10:03:29.397Z,64.43
2018-01-22T10:06:10.889Z,63.23
2018-01-22T10:13:13.901Z,63.83
2018-01-22T10:15:44.470Z,62.87
2018-01-22T10:18:14.969Z,63.23
2018-01-22T10:21:06.807Z,59.90
2018-01-22T10:23:37.712Z,63.60
2018-01-22T10:26:09.984Z,61.90
2018-01-22T10:28:52.982Z,58.33
2018-01-22T10:31:24.354Z,62.30
2018-01-22T10:33:54.657Z,63.33
2018-01-22T10:39:15.784Z,58.95
2018-01-22T10:41:46.002Z,60.77
2018-01-22T10:44:16.169Z,54.37
2018-01-22T10:46:56.880Z,66.70
2018-01-22T10:53:57.289Z,59.87
2018-01-22T10:56:27.736Z,60.53
2018-01-22T10:58:57.980Z,58.63
2018-01-22T11:05:59.033Z,61.93
2018-01-22T11:08:39.472Z,61.30
2018-01-22T11:11:20.452Z,57.93
2018-01-22T11:13:50.629Z,62.33
2018-01-22T11:20:51.923Z,55.30
2018-01-22T11:23:22.049Z,51.27
2018-01-22T11:30:23.922Z,58.93
2018-01-22T11:32:55.190Z,56.80
2018-01-22T11:35:25.782Z,51.37
2018-01-22T11:37:56.969Z,54.07
2018-01-22T11:40:27.176Z,49.67
2018-01-22T11:42:57.638Z,57.63
2018-01-22T11:45:27.886Z,51.33
2018-01-22T11:47:58.844Z,57.00
2018-01-22T11:50:30.253Z,49.63
2018-01-22T11:53:10.916Z,55.23
2018-01-22T11:55:41.883Z,58.97
2018-01-22T11:58:22.696Z,52.47
2018-01-22T12:00:52.961Z,51.20
2018-01-22T12:03:24.392Z,50.70
2018-01-22T12:06:05.236Z,63.40
2018-01-22T12:08:35.513Z,57.10
2018-01-22T12:11:06.084Z,51.70
2018-01-22T12:13:36.274Z,60.63
2018-01-22T12:16:06.500Z,55.27
2018-01-22T12:18:37.129Z,100.57
2018-01-22T12:21:07.635Z,54.13
2018-01-22T12:23:38.898Z,60.17
2018-01-22T12:26:09.248Z,54.77
2018-01-22T12:40:32.110Z,53.13
2018-01-22T12:43:02.243Z,106.17
2018-01-22T12:50:03.292Z,55.27
2018-01-22T12:57:04.604Z,50.07
2018-01-22T13:04:26.356Z,50.07
2018-01-22T13:07:07.039Z,49.97
2018-01-22T13:09:37.762Z,51.63
2018-01-22T13:12:07.933Z,49.00
2018-01-22T13:14:38.174Z,45.30
2018-01-22T13:21:40.186Z,47.15
2018-01-22T13:24:10.779Z,49.20
2018-01-22T13:26:52.546Z,50.55
2018-01-22T13:29:23.583Z,41.80
2018-01-22T13:31:54.158Z,43.87
2018-01-22T13:34:35.497Z,47.73
2018-01-22T13:37:06.017Z,44.67
2018-01-22T13:39:36.904Z,44.03
2018-01-22T13:42:07.993Z,46.30
2018-01-22T13:44:38.988Z,48.73
2018-01-22T13:51:40.800Z,52.90
2018-01-22T13:54:11.978Z,41.20
2018-01-22T13:56:42.592Z,43.33
2018-01-22T13:59:23.394Z,40.30
2018-01-22T14:01:53.580Z,47.13
2018-01-22T14:04:24.076Z,43.37
2018-01-22T14:06:54.409Z,47.20
2018-01-22T14:09:35.761Z,46.20
2018-01-22T14:12:07.524Z,50.83
2018-01-22T14:14:38.506Z,47.43
2018-01-22T14:17:10.140Z,44.70
2018-01-22T14:19:50.913Z,47.27
2018-01-22T14:26:51.849Z,43.20
2018-01-22T14:29:22.815Z,52.53
2018-01-22T14:36:23.693Z,46.53
2018-01-22T14:38:58.902Z,46.45
2018-01-22T14:41:29.779Z,46.97
2018-01-22T14:44:01.100Z,45.87
2018-01-22T14:46:31.357Z,41.80
2018-01-22T14:49:01.919Z,41.17
2018-01-22T15:00:34.823Z,37.80
2018-01-22T15:03:05.036Z,43.60
2018-01-22T15:10:07.268Z,43.57
2018-01-22T15:12:37.732Z,43.37
2018-01-22T15:15:07.962Z,42.30
2018-01-22T15:17:38.701Z,42.70
2018-01-22T15:20:09.346Z,40.37
2018-01-22T15:22:39.700Z,44.77
2018-01-22T15:25:10.135Z,37.00
2018-01-22T15:27:41.599Z,43.83
2018-01-22T15:30:11.979Z,43.00
2018-01-22T15:32:42.165Z,40.07
2018-01-22T15:35:13.082Z,34.57
2018-01-22T15:37:43.361Z,44.77
2018-01-22T15:40:13.589Z,47.27
2018-01-22T15:42:44.073Z,42.23
2018-01-22T15:45:24.565Z,38.17
2018-01-22T15:47:55.174Z,44.47
2018-01-22T15:50:26.038Z,38.47
2018-01-22T15:56:32.794Z,39.90
2018-01-22T15:59:05.300Z,41.27
2018-01-22T16:01:37.187Z,36.80
2018-01-22T16:04:17.964Z,41.13
2018-01-22T16:11:20.455Z,43.23
2018-01-22T16:13:52.984Z,38.93
2018-01-22T16:16:23.132Z,37.10
2018-01-22T16:18:56.105Z,45.57
2018-01-22T16:21:26.721Z,35.23
2018-01-22T16:23:56.971Z,38.77
2018-01-22T16:26:27.507Z,47.83
2018-01-22T16:28:58.588Z,38.33
2018-01-22T16:31:29.266Z,37.97
2018-01-22T16:33:59.654Z,90.30
2018-01-22T16:36:29.885Z,41.67
2018-01-22T16:39:01.618Z,39.77
2018-01-22T16:41:31.989Z,38.00
2018-01-22T16:44:02.424Z,43.13
2018-01-22T16:46:32.708Z,43.53
2018-01-22T16:49:03.199Z,40.80
2018-01-22T16:51:34.431Z,44.90
2018-01-22T16:54:05.705Z,45.67
2018-01-22T16:56:36.213Z,53.47
2018-01-22T16:59:06.499Z,58.90
2018-01-22T17:01:37.766Z,52.30
2018-01-22T17:04:09.353Z,55.67
2018-01-22T17:06:39.577Z,47.40
2018-01-22T17:09:10.746Z,56.80
2018-01-22T17:11:41.865Z,52.50
2018-01-22T17:14:12.253Z,58.53
2018-01-22T17:16:47.782Z,60.63
2018-01-22T17:19:18.846Z,55.53
2018-01-22T17:21:50.097Z,58.13
2018-01-22T17:24:20.385Z,56.03
2018-01-22T17:26:50.906Z,58.57
2018-01-22T17:29:21.215Z,57.17
2018-01-22T17:31:51.466Z,54.10
2018-01-22T17:34:22.120Z,49.33
2018-01-22T17:36:53.384Z,55.67
2018-01-22T17:39:23.890Z,50.97
2018-01-22T17:41:55.053Z,52.57
2018-01-22T17:44:25.513Z,51.87
2018-01-22T17:46:56.544Z,55.90
2018-01-22T17:49:26.755Z,53.90
2018-01-22T17:51:58.072Z,56.40
2018-01-22T17:54:35.423Z,59.30
2018-01-22T17:57:39.524Z,62.13
2018-01-22T18:00:16.514Z,52.37
2018-01-22T18:02:47.595Z,56.63
2018-01-22T18:05:19.735Z,53.87
2018-01-22T18:07:53.384Z,58.13
2018-01-22T18:10:24.176Z,50.87
2018-01-22T18:12:55.649Z,54.97
2018-01-22T18:15:26.679Z,54.97
2018-01-22T18:17:57.400Z,50.57
2018-01-22T18:20:44.601Z,53.00
2018-01-22T18:23:17.417Z,51.07
2018-01-22T18:26:09.669Z,58.07
2018-01-22T18:28:45.697Z,52.53
2018-01-22T18:31:16.942Z,55.67
2018-01-22T18:33:47.865Z,58.43
2018-01-22T18:36:18.070Z,54.73
2018-01-22T18:38:48.515Z,46.60
2018-01-22T18:41:19.638Z,53.93
2018-01-22T18:43:49.824Z,51.40
2018-01-22T18:46:20.198Z,51.93
2018-01-22T18:48:50.561Z,51.20
2018-01-22T18:51:20.774Z,49.53
2018-01-22T18:53:51.301Z,52.00
2018-01-22T18:56:21.509Z,53.53
2018-01-22T18:58:56.974Z,55.30
2018-01-22T19:01:28.071Z,51.63
2018-01-22T19:03:59.017Z,53.73
2018-01-22T19:06:30.045Z,47.50
2018-01-22T19:09:00.494Z,48.43
2018-01-22T19:11:31.549Z,53.70
2018-01-22T19:14:01.775Z,48.00
2018-01-22T19:16:33.065Z,48.90
2018-01-22T19:19:03.548Z,52.00
2018-01-22T19:21:33.731Z,50.97
2018-01-22T19:24:04.225Z,52.57
2018-01-22T19:26:34.385Z,56.43
2018-01-22T19:29:05.541Z,59.47
2018-01-22T19:31:37.619Z,57.87
2018-01-22T19:34:09.536Z,55.27
2018-01-22T19:36:40.191Z,56.60
2018-01-22T19:39:11.220Z,59.33
2018-01-22T19:41:41.816Z,54.80
2018-01-22T19:44:12.238Z,52.33
2018-01-22T19:46:43.245Z,60.07
2018-01-22T19:49:13.778Z,54.43
2018-01-22T19:51:43.968Z,54.90
2018-01-22T19:54:15.330Z,55.33
2018-01-22T19:56:45.530Z,55.90
2018-01-22T19:59:16.099Z,52.43
2018-01-22T20:01:46.397Z,66.03
2018-01-22T20:04:17.813Z,63.50
2018-01-22T20:06:48.471Z,57.77
2018-01-22T20:09:19.520Z,60.70
2018-01-22T20:11:50.508Z,61.23
2018-01-22T20:14:20.972Z,59.90
2018-01-22T20:16:51.294Z,59.67
2018-01-22T20:19:22.604Z,62.03
2018-01-22T20:21:52.800Z,69.27
2018-01-22T20:24:23.345Z,61.13
2018-01-22T20:26:54.789Z,61.53
2018-01-22T20:29:25.109Z,65.80
2018-01-22T20:31:55.758Z,57.37
2018-01-22T20:34:26.020Z,62.87
2018-01-22T20:36:57.799Z,63.03
2018-01-22T20:39:29.343Z,61.77
2018-01-22T20:42:00.599Z,65.93
2018-01-22T20:44:30.904Z,61.17
2018-01-22T20:47:01.475Z,54.57
2018-01-22T20:49:33.540Z,66.33
2018-01-22T20:52:04.050Z,59.43
2018-01-22T20:54:34.252Z,64.80
2018-01-22T20:57:06.570Z,58.90
2018-01-22T20:59:36.855Z,57.00
2018-01-22T21:02:08.341Z,64.70
2018-01-22T21:04:38.558Z,64.53
2018-01-22T21:07:08.831Z,59.37
2018-01-22T21:09:39.625Z,59.00
2018-01-22T21:12:10.181Z,51.57
2018-01-22T21:14:40.529Z,57.33
2018-01-22T21:17:11.125Z,60.97
2018-01-22T21:19:42.128Z,55.67
2018-01-22T21:22:12.458Z,55.53
2018-01-22T21:24:42.708Z,62.10
2018-01-22T21:27:12.936Z,53.63
2018-01-22T21:29:43.458Z,55.77
2018-01-22T21:32:13.910Z,56.90
2018-01-22T21:34:44.254Z,59.87
2018-01-22T21:37:14.433Z,58.93
2018-01-22T21:39:44.805Z,57.63
2018-01-22T21:42:14.964Z,64.30
2018-01-22T21:44:45.207Z,61.43
2018-01-22T21:47:15.776Z,64.37
2018-01-22T21:49:46.194Z,59.33
2018-01-22T21:52:16.382Z,79.70
2018-01-22T21:54:50.941Z,66.90
2018-01-22T21:57:21.384Z,72.37
2018-01-22T21:59:51.869Z,75.67
2018-01-22T22:02:41.873Z,59.50
2018-01-22T22:05:12.465Z,60.27
2018-01-22T22:07:42.949Z,60.60
2018-01-22T22:10:13.300Z,66.80
2018-01-22T22:12:43.576Z,59.50
2018-01-22T22:15:13.802Z,61.57
2018-01-22T22:17:45.469Z,58.97
2018-01-22T22:20:17.264Z,58.80
2018-01-22T22:22:58.758Z,59.97
2018-01-22T22:25:30.026Z,50.50
2018-01-22T22:28:00.748Z,59.00
2018-01-22T22:30:31.991Z,55.53
2018-01-22T22:33:03.351Z,60.40
2018-01-22T22:35:35.291Z,62.20
2018-01-22T22:38:05.862Z,59.83
2018-01-22T22:40:36.116Z,57.50
2018-01-22T22:43:07.839Z,61.43
2018-01-22T22:45:38.717Z,54.23
2018-01-22T22:48:09.181Z,55.73
2018-01-22T22:50:39.781Z,63.67
2018-01-22T22:53:11.056Z,56.13
2018-01-22T22:55:42.056Z,61.70
2018-01-22T22:58:13.066Z,63.17
2018-01-22T23:00:43.688Z,54.70
2018-01-22T23:03:14.191Z,67.43
2018-01-22T23:05:44.748Z,61.17
2018-01-22T23:08:15.378Z,68.03
2018-01-22T23:10:45.761Z,57.60
2018-01-22T23:13:16.020Z,59.80
2018-01-22T23:15:46.630Z,61.33
2018-01-22T23:18:18.375Z,59.27
2018-01-22T23:20:50.825Z,56.13
2018-01-22T23:23:22.144Z,59.47
2018-01-22T23:25:52.446Z,61.00
2018-01-22T23:28:23.542Z,66.60
2018-01-22T23:30:54.117Z,68.03
2018-01-22T23:33:24.809Z,54.37
2018-01-22T23:35:58.037Z,60.63
2018-01-22T23:38:30.194Z,54.27
2018-01-22T23:41:00.802Z,61.10
2018-01-22T23:43:31.898Z,60.07
2018-01-22T23:46:04.034Z,69.63
2018-01-22T23:48:35.134Z,57.17
2018-01-22T23:51:05.916Z,54.77
2018-01-22T23:53:36.300Z,52.33
2018-01-22T23:56:06.795Z,54.90
2018-01-22T23:58:39.332Z,63.90
